createdAt,value
2017-11-07T00:00:48.109Z,14.95
2017-11-07T00:03:15.946Z,15.02
2017-11-07T00:05:43.802Z,15.75
2017-11-07T00:08:11.651Z,15.68
2017-11-07T00:10:39.477Z,18.30
2017-11-07T00:13:07.348Z,20.35
2017-11-07T00:15:35.210Z,24.10
2017-11-07T00:18:03.049Z,21.60
2017-11-07T00:20:30.889Z,26.35
2017-11-07T00:22:58.720Z,25.00
2017-11-07T00:25:26.581Z,27.20
2017-11-07T00:27:54.409Z,28.02
2017-11-07T00:30:22.262Z,26.87
2017-11-07T00:32:50.108Z,28.67
2017-11-07T00:35:17.940Z,29.08
2017-11-07T00:37:45.773Z,28.25
2017-11-07T00:40:13.577Z,29.08
2017-11-07T00:42:41.430Z,29.50
2017-11-07T00:45:09.278Z,30.20
2017-11-07T00:47:37.126Z,33.80
2017-11-07T00:50:04.966Z,34.58
2017-11-07T00:52:32.813Z,36.80
2017-11-07T00:55:00.641Z,40.88
2017-11-07T00:57:28.469Z,38.35
2017-11-07T00:59:56.300Z,37.08
2017-11-07T01:02:24.126Z,35.35
2017-11-07T01:04:51.961Z,36.78
2017-11-07T01:07:19.806Z,36.67
2017-11-07T01:09:47.632Z,40.03
2017-11-07T01:12:15.470Z,34.33
2017-11-07T01:14:43.297Z,34.40
2017-11-07T01:17:11.136Z,34.58
2017-11-07T01:19:38.976Z,31.75
2017-11-07T01:22:06.818Z,34.45
2017-11-07T01:24:34.662Z,32.42
2017-11-07T01:27:02.500Z,30.90
2017-11-07T01:29:30.341Z,35.55
2017-11-07T01:31:58.158Z,36.28
2017-11-07T01:34:25.990Z,31.92
2017-11-07T01:36:53.837Z,30.55
2017-11-07T01:39:21.681Z,32.83
2017-11-07T01:41:49.500Z,31.50
2017-11-07T01:44:17.336Z,34.25
2017-11-07T01:46:45.180Z,32.15
2017-11-07T01:49:13.021Z,31.62
2017-11-07T01:51:40.876Z,31.65
2017-11-07T01:54:08.745Z,35.83
2017-11-07T01:56:36.560Z,32.13
2017-11-07T01:59:04.413Z,31.98
2017-11-07T02:01:32.236Z,36.83
2017-11-07T02:04:00.049Z,28.40
2017-11-07T02:06:27.881Z,31.35
2017-11-07T02:08:55.705Z,32.55
2017-11-07T02:11:23.563Z,38.20
2017-11-07T02:13:51.408Z,35.83
2017-11-07T02:16:19.256Z,32.67
2017-11-07T02:18:47.094Z,31.45
2017-11-07T02:21:14.941Z,34.15
2017-11-07T02:23:42.760Z,30.90
2017-11-07T02:26:10.591Z,29.23
2017-11-07T02:28:38.422Z,31.50
2017-11-07T02:31:06.250Z,31.70
2017-11-07T02:33:34.090Z,33.85
2017-11-07T02:36:01.933Z,33.10
2017-11-07T02:38:29.747Z,32.35
2017-11-07T02:40:57.597Z,34.25
2017-11-07T02:43:25.420Z,32.15
2017-11-07T02:45:53.293Z,31.80
2017-11-07T02:48:21.113Z,31.15
2017-11-07T02:50:48.937Z,28.75
2017-11-07T02:53:16.784Z,35.28
2017-11-07T02:55:44.621Z,34.03
2017-11-07T02:58:12.457Z,28.77
2017-11-07T03:00:40.305Z,33.22
2017-11-07T03:03:08.129Z,32.08
2017-11-07T03:05:35.945Z,31.25
2017-11-07T03:08:03.805Z,33.95
2017-11-07T03:10:31.624Z,31.95
2017-11-07T03:12:59.461Z,31.12
2017-11-07T03:15:27.281Z,34.55
2017-11-07T03:17:55.110Z,33.55
2017-11-07T03:20:22.957Z,40.35
2017-11-07T03:22:50.788Z,34.40
2017-11-07T03:25:18.613Z,35.25
2017-11-07T03:27:46.456Z,38.17
2017-11-07T03:30:14.287Z,32.85
2017-11-07T03:32:42.122Z,33.30
2017-11-07T03:35:09.957Z,32.45
2017-11-07T03:37:37.789Z,33.58
2017-11-07T03:40:05.617Z,35.58
2017-11-07T03:42:33.496Z,32.35
2017-11-07T03:45:01.321Z,33.13
2017-11-07T03:47:29.139Z,34.30
2017-11-07T03:49:56.984Z,29.95
2017-11-07T03:52:24.809Z,34.10
2017-11-07T03:54:52.625Z,31.42
2017-11-07T03:57:20.435Z,37.95
2017-11-07T03:59:48.257Z,33.85
2017-11-07T04:02:16.069Z,33.17
2017-11-07T04:04:43.934Z,35.90
2017-11-07T04:07:11.760Z,31.50
2017-11-07T04:09:39.589Z,32.90
2017-11-07T04:12:07.414Z,37.22
2017-11-07T04:14:35.233Z,36.15
2017-11-07T04:17:03.045Z,32.40
2017-11-07T04:19:30.859Z,33.67
2017-11-07T04:21:58.759Z,33.17
2017-11-07T04:24:26.588Z,34.15
2017-11-07T04:26:54.422Z,39.45
2017-11-07T04:29:22.233Z,30.65
2017-11-07T04:31:50.061Z,38.25
2017-11-07T04:34:18.761Z,31.40
2017-11-07T04:36:46.601Z,31.55
2017-11-07T04:39:14.414Z,36.10
2017-11-07T04:41:42.256Z,34.80
2017-11-07T04:44:10.100Z,36.10
2017-11-07T04:46:37.908Z,35.22
2017-11-07T04:49:05.734Z,36.25
2017-11-07T04:51:33.609Z,35.15
2017-11-07T04:54:01.437Z,31.60
2017-11-07T04:56:29.262Z,34.28
2017-11-07T04:58:57.064Z,31.37
2017-11-07T05:01:24.880Z,31.95
2017-11-07T05:03:52.705Z,32.55
2017-11-07T05:06:20.522Z,32.42
2017-11-07T05:08:48.349Z,34.55
2017-11-07T05:11:16.177Z,28.30
2017-11-07T05:13:44.021Z,31.10
2017-11-07T05:16:11.865Z,32.17
2017-11-07T05:21:13.209Z,31.12
2017-11-07T05:23:41.076Z,33.40
2017-11-07T05:26:08.929Z,31.98
2017-11-07T05:28:36.750Z,30.15
2017-11-07T05:31:04.600Z,33.25
2017-11-07T05:33:32.427Z,30.95
2017-11-07T05:36:00.312Z,31.48
2017-11-07T05:38:28.143Z,29.15
2017-11-07T05:40:55.973Z,28.83
2017-11-07T05:43:23.824Z,32.28
2017-11-07T05:45:51.657Z,27.70
2017-11-07T05:48:19.481Z,29.02
2017-11-07T05:50:47.292Z,28.48
2017-11-07T05:53:15.127Z,30.52
2017-11-07T05:55:42.957Z,27.42
2017-11-07T05:58:10.776Z,27.65
2017-11-07T06:00:38.601Z,29.83
2017-11-07T06:03:06.446Z,34.17
2017-11-07T06:05:34.257Z,29.42
2017-11-07T06:08:02.098Z,28.00
2017-11-07T06:10:29.926Z,28.30
2017-11-07T06:12:57.785Z,27.77
2017-11-07T06:15:25.613Z,26.20
2017-11-07T06:17:53.469Z,22.20
2017-11-07T06:20:21.276Z,23.95
2017-11-07T06:22:49.107Z,26.55
2017-11-07T06:25:16.937Z,26.40
2017-11-07T06:27:44.755Z,23.65
2017-11-07T06:30:12.580Z,25.60
2017-11-07T06:32:40.387Z,25.75
2017-11-07T06:35:08.210Z,26.05
2017-11-07T06:37:36.064Z,26.15
2017-11-07T06:40:04.989Z,24.83
2017-11-07T06:42:32.814Z,24.05
2017-11-07T06:45:00.620Z,26.98
2017-11-07T06:47:28.466Z,28.00
2017-11-07T06:49:56.293Z,25.50
2017-11-07T06:52:24.114Z,25.83
2017-11-07T06:54:51.978Z,27.45
2017-11-07T06:57:20.977Z,27.45
2017-11-07T06:59:48.810Z,26.10
2017-11-07T07:02:16.612Z,26.77
2017-11-07T07:04:44.424Z,28.05
2017-11-07T07:07:12.246Z,23.98
2017-11-07T07:09:40.066Z,27.52
2017-11-07T07:12:07.881Z,24.65
2017-11-07T07:14:35.686Z,25.92
2017-11-07T07:17:03.509Z,28.48
2017-11-07T07:19:31.337Z,23.55
2017-11-07T07:21:59.161Z,23.98
2017-11-07T07:24:26.967Z,23.35
2017-11-07T07:26:54.802Z,22.52
2017-11-07T07:29:22.605Z,21.70
2017-11-07T07:31:50.433Z,20.60
2017-11-07T07:34:18.244Z,23.02
2017-11-07T07:36:49.164Z,21.70
2017-11-07T07:39:16.980Z,20.98
2017-11-07T07:41:44.802Z,24.12
2017-11-07T07:44:19.124Z,23.42
2017-11-07T07:46:46.940Z,23.48
2017-11-07T07:49:14.765Z,24.37
2017-11-07T07:51:42.637Z,21.87
2017-11-07T07:57:03.733Z,25.35
2017-11-07T07:59:48.830Z,26.35
2017-11-07T08:02:16.918Z,28.62
2017-11-07T08:07:47.988Z,28.27
2017-11-07T08:10:16.011Z,29.60
2017-11-07T08:12:44.121Z,30.60
2017-11-07T08:15:12.065Z,29.37
2017-11-07T08:17:39.914Z,29.40
2017-11-07T08:20:07.734Z,34.08
2017-11-07T08:22:35.553Z,34.33
2017-11-07T08:25:03.398Z,33.42
2017-11-07T08:27:31.346Z,35.40
2017-11-07T08:29:59.173Z,36.63
2017-11-07T08:32:26.990Z,33.85
2017-11-07T08:34:54.821Z,36.72
2017-11-07T08:37:22.662Z,34.38
2017-11-07T08:39:52.305Z,35.22
2017-11-07T08:42:34.521Z,31.75
2017-11-07T08:45:04.090Z,35.92
2017-11-07T08:47:31.981Z,30.58
2017-11-07T08:49:59.859Z,32.47
2017-11-07T08:52:27.682Z,29.95
2017-11-07T08:54:55.505Z,28.52
2017-11-07T08:57:23.321Z,29.42
2017-11-07T08:59:51.152Z,32.22
2017-11-07T09:02:19.049Z,30.60
2017-11-07T09:04:46.879Z,33.47
2017-11-07T09:07:14.705Z,32.95
2017-11-07T09:12:33.116Z,32.35
2017-11-07T09:15:01.108Z,30.55
2017-11-07T09:17:29.879Z,31.73
2017-11-07T09:19:58.638Z,28.92
2017-11-07T09:22:36.559Z,31.05
2017-11-07T09:25:08.440Z,33.58
2017-11-07T09:30:31.845Z,33.03
2017-11-07T09:33:00.034Z,38.13
2017-11-07T09:35:28.009Z,41.65
2017-11-07T09:37:55.824Z,38.40
2017-11-07T09:40:23.653Z,37.85
2017-11-07T09:42:51.488Z,37.55
2017-11-07T09:45:19.312Z,36.37
2017-11-07T09:47:47.136Z,35.67
2017-11-07T09:50:14.987Z,38.35
2017-11-07T09:52:42.812Z,37.17
2017-11-07T09:55:10.624Z,38.78
2017-11-07T09:57:38.466Z,35.37
2017-11-07T10:00:06.291Z,32.85
2017-11-07T10:02:34.137Z,32.65
2017-11-07T10:05:01.961Z,36.28
2017-11-07T10:07:29.788Z,33.57
2017-11-07T10:09:57.620Z,36.60
2017-11-07T10:12:25.443Z,36.63
2017-11-07T10:14:53.270Z,32.70
2017-11-07T10:17:21.104Z,33.70
2017-11-07T10:19:48.920Z,35.13
2017-11-07T10:22:16.754Z,28.20
2017-11-07T10:24:44.600Z,21.43
2017-11-07T10:27:12.472Z,20.03
2017-11-07T10:29:40.309Z,17.63
2017-11-07T10:32:08.120Z,15.93
2017-11-07T10:34:35.946Z,20.30
2017-11-07T10:37:03.769Z,19.43
2017-11-07T10:39:31.580Z,19.30
2017-11-07T10:41:59.413Z,21.00
2017-11-07T10:44:27.279Z,22.40
2017-11-07T10:46:55.096Z,28.23
2017-11-07T10:49:22.919Z,28.47
2017-11-07T10:51:50.736Z,34.00
2017-11-07T10:54:18.545Z,29.90
2017-11-07T10:56:46.363Z,32.50
2017-11-07T10:59:14.182Z,27.87
2017-11-07T11:01:42.020Z,29.40
2017-11-07T11:04:09.840Z,30.63
2017-11-07T11:06:37.658Z,26.67
2017-11-07T11:09:05.505Z,31.40
2017-11-07T11:11:33.337Z,23.80
2017-11-07T11:14:01.166Z,22.40
2017-11-07T11:16:28.997Z,21.60
2017-11-07T11:18:56.864Z,19.60
2017-11-07T11:21:24.679Z,21.63
2017-11-07T11:23:52.516Z,23.23
2017-11-07T11:26:20.337Z,24.13
2017-11-07T11:28:48.149Z,21.43
2017-11-07T11:31:15.975Z,20.97
2017-11-07T11:33:43.792Z,22.40
2017-11-07T11:36:11.616Z,20.93
2017-11-07T11:38:39.430Z,24.03
2017-11-07T11:41:07.250Z,21.60
2017-11-07T11:43:35.056Z,21.50
2017-11-07T11:46:02.892Z,20.60
2017-11-07T11:48:30.717Z,20.43
2017-11-07T11:50:58.568Z,23.27
2017-11-07T11:53:26.458Z,20.67
2017-11-07T11:55:54.322Z,21.93
2017-11-07T11:58:22.148Z,21.90
2017-11-07T12:00:49.999Z,21.50
2017-11-07T12:03:17.842Z,21.43
2017-11-07T12:05:45.654Z,22.13
2017-11-07T12:08:13.489Z,26.10
2017-11-07T12:10:41.307Z,19.50
2017-11-07T12:13:09.153Z,19.57
2017-11-07T12:15:36.998Z,18.77
2017-11-07T12:18:04.854Z,18.63
2017-11-07T12:20:32.700Z,19.07
2017-11-07T12:23:00.553Z,19.30
2017-11-07T12:25:28.393Z,20.27
2017-11-07T12:27:56.228Z,21.30
2017-11-07T12:30:24.085Z,20.23
2017-11-07T12:32:51.942Z,18.93
2017-11-07T12:35:19.807Z,17.47
2017-11-07T12:37:47.677Z,20.73
2017-11-07T12:40:15.598Z,18.43
2017-11-07T12:42:43.428Z,18.13
2017-11-07T12:45:11.277Z,17.77
2017-11-07T12:47:39.097Z,17.77
2017-11-07T12:50:12.912Z,17.87
2017-11-07T12:52:40.742Z,18.23
2017-11-07T12:55:08.585Z,18.37
2017-11-07T12:57:36.421Z,21.20
2017-11-07T13:00:04.260Z,22.47
2017-11-07T13:02:32.086Z,22.40
2017-11-07T13:04:59.931Z,23.60
2017-11-07T13:07:27.771Z,21.20
2017-11-07T13:09:55.628Z,21.23
2017-11-07T13:12:23.454Z,20.17
2017-11-07T13:14:51.321Z,22.67
2017-11-07T13:17:19.165Z,22.43
2017-11-07T13:19:47.017Z,21.10
2017-11-07T13:22:14.861Z,23.60
2017-11-07T13:24:42.742Z,23.57
2017-11-07T13:27:10.581Z,22.00
2017-11-07T13:29:38.404Z,22.83
2017-11-07T13:32:06.251Z,21.13
2017-11-07T13:34:34.072Z,20.43
2017-11-07T13:37:01.921Z,24.63
2017-11-07T13:39:29.728Z,21.10
2017-11-07T13:41:57.554Z,21.53
2017-11-07T13:44:25.365Z,20.57
2017-11-07T13:46:53.200Z,19.30
2017-11-07T13:49:21.039Z,20.20
2017-11-07T13:51:48.864Z,19.53
2017-11-07T13:54:16.699Z,19.93
2017-11-07T13:56:44.517Z,16.43
2017-11-07T13:59:12.328Z,19.23
2017-11-07T14:01:40.165Z,15.73
2017-11-07T14:04:07.992Z,14.23
2017-11-07T14:06:35.856Z,13.90
2017-11-07T14:09:03.698Z,15.63
2017-11-07T14:11:31.544Z,15.40
2017-11-07T14:13:59.425Z,16.47
2017-11-07T14:16:27.248Z,17.90
2017-11-07T14:18:55.121Z,17.90
2017-11-07T14:21:22.979Z,19.27
2017-11-07T14:23:50.797Z,18.37
2017-11-07T14:26:18.621Z,18.00
2017-11-07T14:28:46.467Z,18.83
2017-11-07T14:31:14.300Z,17.73
2017-11-07T14:33:42.160Z,17.97
2017-11-07T14:36:10.033Z,18.67
2017-11-07T14:38:37.886Z,17.40
2017-11-07T14:41:05.735Z,20.50
2017-11-07T14:43:33.564Z,18.77
2017-11-07T14:46:01.394Z,17.60
2017-11-07T14:48:29.219Z,14.93
2017-11-07T14:50:57.049Z,15.40
2017-11-07T14:53:24.900Z,16.30
2017-11-07T14:55:52.733Z,14.53
2017-11-07T14:58:20.568Z,13.90
2017-11-07T15:00:48.402Z,13.37
2017-11-07T15:03:16.236Z,12.90
2017-11-07T15:05:44.100Z,13.30
2017-11-07T15:08:11.927Z,12.17
2017-11-07T15:10:39.776Z,14.37
2017-11-07T15:13:07.635Z,15.30
2017-11-07T15:15:35.493Z,12.20
2017-11-07T15:18:03.331Z,13.47
2017-11-07T15:20:31.176Z,12.67
2017-11-07T15:22:58.989Z,12.20
2017-11-07T15:25:26.835Z,12.57
2017-11-07T15:27:54.667Z,11.27
2017-11-07T15:30:22.502Z,14.03
2017-11-07T15:32:50.399Z,12.73
2017-11-07T15:35:18.272Z,11.27
2017-11-07T15:37:46.119Z,12.70
2017-11-07T15:40:13.990Z,12.80
2017-11-07T15:42:41.829Z,12.70
2017-11-07T15:45:09.653Z,13.02
2017-11-07T15:47:37.502Z,13.07
2017-11-07T15:50:05.345Z,13.68
2017-11-07T15:52:33.196Z,12.85
2017-11-07T15:55:01.035Z,13.10
2017-11-07T15:57:28.890Z,14.40
2017-11-07T15:59:56.718Z,16.30
2017-11-07T16:02:24.561Z,14.20
2017-11-07T16:04:52.415Z,15.40
2017-11-07T16:07:20.292Z,16.40
2017-11-07T16:09:48.138Z,15.98
2017-11-07T16:12:15.993Z,15.85
2017-11-07T16:14:43.853Z,17.17
2017-11-07T16:17:11.691Z,19.20
2017-11-07T16:19:39.516Z,19.02
2017-11-07T16:22:07.349Z,18.83
2017-11-07T16:24:35.207Z,18.15
2017-11-07T16:27:03.044Z,17.50
2017-11-07T16:29:30.912Z,18.87
2017-11-07T16:31:58.773Z,16.53
2017-11-07T16:34:26.609Z,15.52
2017-11-07T16:36:54.503Z,16.93
2017-11-07T16:39:22.412Z,15.90
2017-11-07T16:41:50.280Z,18.67
2017-11-07T16:44:18.147Z,16.83
2017-11-07T16:46:46.025Z,16.87
2017-11-07T16:49:13.846Z,16.50
2017-11-07T16:51:42.700Z,17.50
2017-11-07T16:54:10.561Z,16.80
2017-11-07T16:56:38.420Z,17.67
2017-11-07T16:59:06.229Z,15.82
2017-11-07T17:01:34.057Z,18.98
2017-11-07T17:04:01.905Z,19.33
2017-11-07T17:06:29.812Z,16.23
2017-11-07T17:08:57.629Z,17.05
2017-11-07T17:11:25.477Z,17.98
2017-11-07T17:13:53.296Z,18.10
2017-11-07T17:16:21.125Z,17.80
2017-11-07T17:18:48.943Z,17.70
2017-11-07T17:21:16.775Z,18.50
2017-11-07T17:23:44.613Z,18.48
2017-11-07T17:26:12.433Z,19.42
2017-11-07T17:28:40.313Z,18.90
2017-11-07T17:31:08.150Z,17.00
2017-11-07T17:33:36.009Z,17.80
2017-11-07T17:36:03.837Z,16.95
2017-11-07T17:38:31.674Z,19.20
2017-11-07T17:40:59.523Z,18.60
2017-11-07T17:43:27.482Z,18.15
2017-11-07T17:45:55.300Z,19.17
2017-11-07T17:48:23.138Z,18.43
2017-11-07T17:50:50.989Z,19.00
2017-11-07T17:53:18.847Z,17.63
2017-11-07T17:55:46.668Z,16.63
2017-11-07T17:58:14.504Z,17.75
2017-11-07T18:00:42.327Z,18.83
2017-11-07T18:03:10.158Z,19.67
2017-11-07T18:05:38.005Z,22.87
2017-11-07T18:08:05.829Z,20.00
2017-11-07T18:10:33.668Z,20.50
2017-11-07T18:13:01.485Z,20.77
2017-11-07T18:15:29.297Z,20.77
2017-11-07T18:17:57.147Z,22.73
2017-11-07T18:20:24.981Z,22.62
2017-11-07T18:22:52.796Z,22.52
2017-11-07T18:25:20.613Z,23.45
2017-11-07T18:27:48.452Z,22.50
2017-11-07T18:30:16.301Z,23.17
2017-11-07T18:32:44.119Z,22.02
2017-11-07T18:35:11.958Z,22.30
2017-11-07T18:37:39.804Z,18.95
2017-11-07T18:40:07.669Z,18.10
2017-11-07T18:42:35.487Z,21.60
2017-11-07T18:45:03.345Z,21.10
2017-11-07T18:47:31.173Z,21.60
2017-11-07T18:49:59.000Z,21.95
2017-11-07T18:52:26.821Z,23.77
2017-11-07T18:54:54.648Z,22.33
2017-11-07T18:57:22.494Z,22.60
2017-11-07T18:59:50.425Z,24.67
2017-11-07T19:02:18.317Z,23.00
2017-11-07T19:04:46.165Z,23.10
2017-11-07T19:07:14.024Z,20.67
2017-11-07T19:09:41.857Z,23.40
2017-11-07T19:12:09.722Z,24.35
2017-11-07T19:14:37.562Z,23.33
2017-11-07T19:17:05.425Z,22.30
2017-11-07T19:19:33.237Z,22.62
2017-11-07T19:22:01.110Z,23.70
2017-11-07T19:24:29.964Z,23.15
2017-11-07T19:26:57.812Z,24.00
2017-11-07T19:29:25.691Z,23.20
2017-11-07T19:31:53.592Z,23.62
2017-11-07T19:34:21.462Z,23.33
2017-11-07T19:36:49.301Z,24.80
2017-11-07T19:39:17.164Z,23.17
2017-11-07T19:41:45.012Z,25.08
2017-11-07T19:44:12.877Z,24.60
2017-11-07T19:46:40.708Z,24.98
2017-11-07T19:49:08.570Z,22.23
2017-11-07T19:51:36.392Z,22.33
2017-11-07T19:54:04.239Z,23.30
2017-11-07T19:56:32.097Z,22.65
2017-11-07T19:58:59.944Z,22.48
2017-11-07T20:01:27.747Z,22.87
2017-11-07T20:03:55.568Z,25.08
2017-11-07T20:06:23.409Z,22.20
2017-11-07T20:08:51.272Z,21.27
2017-11-07T20:11:19.097Z,22.95
2017-11-07T20:13:46.933Z,22.62
2017-11-07T20:16:14.760Z,23.08
2017-11-07T20:18:42.596Z,23.77
2017-11-07T20:21:10.440Z,22.83
2017-11-07T20:23:38.331Z,23.20
2017-11-07T20:26:06.188Z,20.30
2017-11-07T20:28:34.003Z,20.33
2017-11-07T20:31:01.818Z,20.67
2017-11-07T20:33:29.651Z,21.07
2017-11-07T20:35:57.522Z,19.85
2017-11-07T20:38:25.350Z,20.50
2017-11-07T20:40:53.171Z,20.08
2017-11-07T20:43:20.999Z,19.05
2017-11-07T20:45:48.850Z,21.83
2017-11-07T20:48:16.697Z,18.90
2017-11-07T20:50:44.524Z,19.42
2017-11-07T20:53:12.348Z,18.12
2017-11-07T20:55:40.168Z,17.77
2017-11-07T20:58:07.997Z,15.88
2017-11-07T21:00:35.831Z,18.40
2017-11-07T21:03:03.662Z,18.20
2017-11-07T21:05:31.505Z,16.35
2017-11-07T21:07:59.350Z,16.62
2017-11-07T21:10:27.174Z,16.63
2017-11-07T21:12:55.024Z,18.35
2017-11-07T21:15:22.849Z,17.00
2017-11-07T21:17:50.725Z,16.02
2017-11-07T21:20:18.549Z,15.45
2017-11-07T21:22:46.387Z,14.68
2017-11-07T21:25:14.225Z,16.75
2017-11-07T21:27:42.048Z,15.37
2017-11-07T21:30:09.865Z,16.73
2017-11-07T21:32:37.713Z,16.23
2017-11-07T21:35:05.565Z,14.32
2017-11-07T21:37:33.381Z,17.57
2017-11-07T21:40:01.225Z,14.97
2017-11-07T21:42:29.072Z,13.20
2017-11-07T21:44:56.905Z,14.90
2017-11-07T21:47:24.748Z,15.45
2017-11-07T21:49:52.616Z,14.23
2017-11-07T21:52:20.460Z,16.12
2017-11-07T21:54:48.285Z,14.87
2017-11-07T21:57:16.112Z,14.30
2017-11-07T21:59:43.933Z,15.77
2017-11-07T22:02:11.765Z,15.68
2017-11-07T22:04:39.629Z,14.75
2017-11-07T22:07:07.452Z,15.20
2017-11-07T22:09:35.285Z,13.37
2017-11-07T22:12:03.451Z,15.03
2017-11-07T22:14:32.360Z,15.77
2017-11-07T22:17:00.197Z,13.20
2017-11-07T22:19:28.023Z,13.50
2017-11-07T22:21:55.889Z,13.77
2017-11-07T22:24:23.706Z,13.63
2017-11-07T22:26:51.572Z,13.87
2017-11-07T22:29:19.392Z,14.93
2017-11-07T22:31:47.230Z,12.63
2017-11-07T22:34:15.036Z,13.47
2017-11-07T22:36:42.883Z,13.40
2017-11-07T22:39:10.721Z,12.93
2017-11-07T22:41:38.544Z,13.50
2017-11-07T22:44:06.394Z,12.43
2017-11-07T22:46:34.279Z,13.20
2017-11-07T22:49:02.170Z,13.85
2017-11-07T22:51:30.041Z,11.40
2017-11-07T22:53:57.878Z,13.37
2017-11-07T22:56:25.786Z,13.40
2017-11-07T22:58:53.645Z,12.10
2017-11-07T23:01:21.491Z,12.23
2017-11-07T23:03:49.344Z,12.13
2017-11-07T23:06:17.191Z,11.63
2017-11-07T23:08:45.014Z,12.00
2017-11-07T23:11:12.851Z,12.20
2017-11-07T23:13:40.688Z,12.75
2017-11-07T23:16:08.545Z,11.57
2017-11-07T23:18:36.380Z,11.83
2017-11-07T23:21:04.241Z,12.73
2017-11-07T23:23:32.097Z,13.07
2017-11-07T23:25:59.919Z,11.45
2017-11-07T23:28:27.753Z,12.07
2017-11-07T23:30:55.577Z,11.10
2017-11-07T23:33:23.410Z,12.17
2017-11-07T23:35:51.246Z,13.00
2017-11-07T23:38:19.078Z,11.53
2017-11-07T23:40:46.902Z,11.43
2017-11-07T23:43:14.746Z,12.07
2017-11-07T23:45:42.572Z,12.00
2017-11-07T23:48:10.394Z,12.23
2017-11-07T23:50:38.275Z,11.10
2017-11-07T23:53:06.124Z,12.65
2017-11-07T23:55:33.973Z,14.15
2017-11-07T23:58:01.814Z,13.10
